Time;durP1;ratioP1;P1;durP2;ratioP2;P2;SDS_P1;SDS_P2;PMS_P1;PMS_P2;Temp;Humidity;BMP_temperature;BMP_pressure;BME280_temperature;BME280_humidity;BME280_pressure;Samples;Min_cycle;Max_cycle;Signal;HPM_P1;HPM_P2
2022/10/24 00:01:10;;;;;;;16.25;7.72;;;;;;;20.26;50.45;102016.78;143716;651;47008;-69
2022/10/24 00:03:36;;;;;;;9.38;7.07;;;;;;;20.27;50.51;102019.25;143715;567;47006;-68
2022/10/24 00:06:05;;;;;;;16.00;7.30;;;;;;;20.26;50.92;102023.06;143717;596;47010;-68
2022/10/24 00:08:32;;;;;;;19.23;8.23;;;;;;;20.23;50.86;102012.59;143712;727;47006;-68
2022/10/24 00:10:59;;;;;;;15.38;6.62;;;;;;;20.21;50.97;102019.34;143717;598;47009;-68
2022/10/24 00:13:25;;;;;;;13.30;7.15;;;;;;;20.18;51.13;102014.34;143716;591;47004;-67
2022/10/24 00:15:53;;;;;;;16.42;6.90;;;;;;;20.14;51.35;102009.37;143715;579;47004;-64
2022/10/24 00:18:19;;;;;;;13.32;6.87;;;;;;;20.11;51.25;102007.13;143717;611;47004;-71
2022/10/24 00:20:46;;;;;;;13.43;7.05;;;;;;;20.12;51.49;102010.66;143718;581;46008;-66
2022/10/24 00:23:13;;;;;;;11.38;5.80;;;;;;;20.12;51.02;102016.94;143713;568;47006;-69
2022/10/24 00:25:39;;;;;;;12.55;6.53;;;;;;;20.14;51.28;102019.47;143712;573;47008;-68
2022/10/24 00:28:05;;;;;;;12.13;6.10;;;;;;;20.16;51.69;102011.88;143713;620;47006;-68
2022/10/24 00:30:32;;;;;;;12.82;6.53;;;;;;;20.19;51.68;102013.28;143715;574;47008;-68
2022/10/24 00:32:58;;;;;;;15.10;5.80;;;;;;;20.17;51.24;102016.28;143715;669;47005;-68
2022/10/24 00:35:24;;;;;;;14.57;5.03;;;;;;;20.19;51.25;102016.87;143715;611;47010;-68
2022/10/24 00:37:51;;;;;;;18.62;6.10;;;;;;;20.14;51.15;102023.00;143712;596;47006;-68
2022/10/24 00:40:19;;;;;;;13.43;5.53;;;;;;;20.11;51.29;102015.31;143716;577;47008;-68
2022/10/24 00:42:46;;;;;;;13.65;6.62;;;;;;;20.11;51.10;102015.31;143715;590;47004;-68
2022/10/24 00:45:54;;;;;;;12.15;5.90;;;;;;;20.07;51.35;102000.47;143716;588;47004;-68
2022/10/24 00:48:45;;;;;;;16.15;5.87;;;;;;;20.06;51.73;102000.66;143714;585;47006;-68
2022/10/24 00:51:24;;;;;;;9.73;6.00;;;;;;;20.02;51.54;101999.50;143717;573;47008;-68
2022/10/24 00:54:00;;;;;;;13.93;6.12;;;;;;;20.02;51.44;102005.75;143715;622;47006;-68
2022/10/24 00:56:30;;;;;;;14.70;6.10;;;;;;;20.05;51.50;102001.72;143717;589;47006;-68
2022/10/24 00:58:58;;;;;;;17.17;7.55;;;;;;;20.05;51.78;102004.47;143712;573;47004;-69
2022/10/24 01:01:25;;;;;;;12.75;6.62;;;;;;;20.01;51.86;102001.38;143717;627;47008;-68
2022/10/24 01:03:52;;;;;;;15.40;7.35;;;;;;;19.99;51.71;102000.75;143712;591;47006;-68
2022/10/24 01:07:12;;;;;;;11.93;6.00;;;;;;;19.96;51.63;101993.03;143716;707;47010;-68
2022/10/24 01:10:01;;;;;;;14.02;7.28;;;;;;;19.93;51.82;102001.72;143711;616;47006;-68
2022/10/24 01:12:58;;;;;;;8.82;6.32;;;;;;;19.91;51.98;102001.09;143719;596;47008;-68
2022/10/24 01:15:51;;;;;;;13.23;6.82;;;;;;;19.88;51.59;102002.38;143716;636;47006;-68
2022/10/24 01:18:52;;;;;;;11.80;7.50;;;;;;;19.88;51.53;101996.09;143714;583;47011;-68
2022/10/24 01:21:34;;;;;;;17.00;8.05;;;;;;;19.84;51.95;102009.34;143715;568;47006;-68
2022/10/24 01:24:35;;;;;;;13.07;8.05;;;;;;;19.83;51.68;102004.94;143716;590;47008;-68
2022/10/24 01:27:31;;;;;;;11.18;6.72;;;;;;;19.81;52.24;101996.16;143715;647;47004;-68
2022/10/24 01:30:16;;;;;;;11.00;7.18;;;;;;;19.80;51.93;102002.66;143711;594;47010;-68
2022/10/24 01:33:00;;;;;;;9.60;6.93;;;;;;;19.79;52.31;102001.00;143714;598;47006;-68
2022/10/24 01:35:55;;;;;;;14.23;7.75;;;;;;;19.71;52.59;101999.44;143720;739;47008;-68
2022/10/24 01:38:51;;;;;;;13.77;7.90;;;;;;;19.72;52.03;102001.09;143712;679;47004;-68
2022/10/24 01:41:22;;;;;;;12.07;8.23;;;;;;;19.72;52.07;102001.09;143715;748;47010;-67
2022/10/24 01:44:17;;;;;;;13.32;7.97;;;;;;;19.69;52.48;101999.63;143716;566;47004;-68
2022/10/24 01:47:10;;;;;;;10.02;7.05;;;;;;;19.68;52.57;101995.25;143715;592;47924;-68
2022/10/24 01:49:39;;;;;;;10.18;7.50;;;;;;;19.69;52.74;101996.09;143716;569;47002;-68
2022/10/24 01:52:09;;;;;;;13.68;8.30;;;;;;;19.68;52.28;101999.87;143715;589;47010;-68
2022/10/24 01:54:38;;;;;;;16.90;8.30;;;;;;;19.65;52.66;101995.72;143717;581;47003;-68
2022/10/24 01:57:04;;;;;;;11.90;7.15;;;;;;;19.68;52.70;101997.16;143716;600;47006;-68
2022/10/24 01:59:50;;;;;;;13.75;8.05;;;;;;;19.64;52.59;101996.78;143715;578;47004;-68
2022/10/24 02:02:41;;;;;;;12.65;7.37;;;;;;;19.62;52.62;101993.44;143716;626;47010;-67
2022/10/24 02:05:24;;;;;;;11.82;7.22;;;;;;;19.60;52.85;102001.03;143716;651;47002;-68
2022/10/24 02:07:53;;;;;;;11.98;7.72;;;;;;;19.59;53.16;101995.81;143715;601;47006;-68
2022/10/24 02:10:38;;;;;;;13.75;7.50;;;;;;;19.58;52.63;101994.16;143718;581;47000;-69
2022/10/24 02:13:23;;;;;;;12.75;7.12;;;;;;;19.54;52.07;101997.31;143714;580;47010;-68
2022/10/24 02:15:52;;;;;;;11.63;6.93;;;;;;;19.56;52.77;101997.09;143715;569;47008;-68
2022/10/24 02:18:20;;;;;;;12.15;7.28;;;;;;;19.53;52.28;101995.66;143717;586;47006;-68
2022/10/24 02:21:30;;;;;;;16.33;6.75;;;;;;;19.49;52.79;101999.06;143718;736;47000;-68
2022/10/24 02:24:27;;;;;;;11.38;7.05;;;;;;;19.49;52.46;101999.87;143716;567;47008;-68
2022/10/24 02:27:11;;;;;;;11.02;6.43;;;;;;;19.49;52.87;101996.34;143713;569;47930;-68
2022/10/24 02:30:01;;;;;;;10.23;6.32;;;;;;;19.48;52.97;102002.84;143713;578;47006;-68
2022/10/24 02:32:35;;;;;;;12.00;6.72;;;;;;;19.46;52.33;101997.59;143716;588;47002;-68
2022/10/24 02:35:04;;;;;;;10.43;6.70;;;;;;;19.44;52.80;101999.72;143718;578;46021;-68
2022/10/24 02:37:34;;;;;;;15.27;6.40;;;;;;;19.39;53.06;101989.50;143715;656;47002;-67
2022/10/24 02:40:05;;;;;;;19.73;6.95;;;;;;;19.37;52.98;101997.06;143718;753;47007;-67
2022/10/24 02:42:33;;;;;;;12.10;6.60;;;;;;;19.36;52.68;102000.84;143718;572;47006;-68
2022/10/24 02:45:00;;;;;;;17.85;6.43;;;;;;;19.35;53.00;101993.75;143718;623;47008;-68
2022/10/24 02:47:28;;;;;;;13.48;6.90;;;;;;;19.34;52.96;102005.69;143716;653;47002;-68
2022/10/24 02:49:55;;;;;;;12.80;6.35;;;;;;;19.34;53.11;102005.69;143710;796;49924;-68
2022/10/24 02:52:22;;;;;;;19.05;6.45;;;;;;;19.34;52.88;101997.53;143716;689;47004;-68
2022/10/24 02:54:49;;;;;;;11.57;5.80;;;;;;;19.37;53.18;101998.97;143716;601;47009;-68
2022/10/24 02:57:16;;;;;;;16.75;6.78;;;;;;;19.37;52.97;101996.25;143714;602;47004;-68
2022/10/24 02:59:42;;;;;;;19.48;7.05;;;;;;;19.36;53.39;101991.88;143718;791;47006;-67
2022/10/24 03:02:09;;;;;;;13.62;6.93;;;;;;;19.34;53.47;101989.34;143717;595;47005;-68
2022/10/24 03:04:35;;;;;;;15.35;6.70;;;;;;;19.37;53.23;101986.19;143715;583;47010;-68
2022/10/24 03:07:01;;;;;;;13.65;6.70;;;;;;;19.39;52.78;101997.69;143713;594;47930;-68
2022/10/24 03:09:28;;;;;;;18.02;7.40;;;;;;;19.38;53.27;101993.28;143718;603;47007;-67
2022/10/24 03:11:54;;;;;;;17.17;6.60;;;;;;;19.38;53.54;102000.66;143713;567;47002;-67
2022/10/24 03:14:21;;;;;;;15.55;7.22;;;;;;;19.38;52.98;102000.66;143715;760;47010;-68
2022/10/24 03:16:47;;;;;;;14.70;8.05;;;;;;;19.36;53.28;102000.84;143714;589;47005;-68
2022/10/24 03:19:13;;;;;;;20.27;7.12;;;;;;;19.37;53.28;101998.97;143716;591;47006;-69
2022/10/24 03:21:41;;;;;;;14.70;7.07;;;;;;;19.37;52.94;102007.16;143714;566;47002;-67
2022/10/24 03:24:07;;;;;;;11.63;6.03;;;;;;;19.38;53.54;102006.91;143715;588;47010;-68
2022/10/24 03:26:34;;;;;;;14.52;9.32;;;;;;;19.36;53.51;102002.75;143718;567;47004;-68
2022/10/24 03:29:00;;;;;;;25.55;16.73;;;;;;;19.32;53.54;102005.12;143717;721;47006;-68
2022/10/24 03:31:27;;;;;;;37.05;24.25;;;;;;;19.33;53.54;102004.03;143713;593;47002;-68
2022/10/24 03:33:53;;;;;;;37.53;22.85;;;;;;;19.32;53.48;102001.53;143717;662;47008;-68
2022/10/24 03:36:20;;;;;;;28.48;17.77;;;;;;;19.31;53.38;102000.72;143713;588;47004;-68
2022/10/24 03:38:46;;;;;;;26.52;17.55;;;;;;;19.33;53.40;102003.22;143717;624;47000;-68
2022/10/24 03:41:12;;;;;;;26.67;12.88;;;;;;;19.30;53.45;101999.06;143717;567;47004;-68
2022/10/24 03:43:39;;;;;;;19.20;11.32;;;;;;;19.28;53.46;102006.63;143715;583;47010;-68
2022/10/24 03:46:05;;;;;;;19.15;9.85;;;;;;;19.30;53.60;102000.94;143716;584;47002;-68
2022/10/24 03:48:32;;;;;;;15.73;10.90;;;;;;;19.33;53.26;102000.50;143713;596;47000;-68
2022/10/24 03:50:58;;;;;;;16.30;10.57;;;;;;;19.29;53.39;102008.28;143716;597;47004;-68
2022/10/24 03:53:25;;;;;;;25.67;14.80;;;;;;;19.24;53.33;102002.69;143715;592;47009;-68
2022/10/24 03:55:51;;;;;;;28.23;16.83;;;;;;;19.24;53.39;102011.66;143714;577;47004;-68
2022/10/24 03:58:17;;;;;;;22.75;16.52;;;;;;;19.23;53.81;102001.00;143714;601;47006;-68
2022/10/24 04:00:44;;;;;;;26.73;15.80;;;;;;;19.21;53.73;102009.41;143717;576;46007;-67
2022/10/24 04:03:10;;;;;;;23.75;15.30;;;;;;;19.23;53.34;102007.31;143714;887;47008;-68
2022/10/24 04:05:36;;;;;;;20.30;11.68;;;;;;;19.24;53.62;102014.38;143716;594;47004;-67
2022/10/24 04:08:03;;;;;;;23.98;12.80;;;;;;;19.22;53.99;102013.81;143718;689;47006;-69
2022/10/24 04:10:29;;;;;;;22.62;12.63;;;;;;;19.22;53.67;102011.09;143716;734;47004;-67
2022/10/24 04:12:56;;;;;;;17.37;12.23;;;;;;;19.23;53.77;102007.31;143718;572;47008;-68
2022/10/24 04:15:22;;;;;;;20.00;11.80;;;;;;;19.22;53.92;102004.78;143715;690;47004;-68
2022/10/24 04:17:48;;;;;;;26.52;12.23;;;;;;;19.20;53.62;102013.19;143718;585;47006;-68
2022/10/24 04:20:18;;;;;;;19.92;10.32;;;;;;;19.16;53.68;102014.69;143721;651;47006;-67
2022/10/24 04:22:45;;;;;;;18.35;10.52;;;;;;;19.16;54.08;102011.97;143717;749;47010;-68
2022/10/24 04:25:12;;;;;;;20.60;11.40;;;;;;;19.17;53.61;102020.97;143716;594;47004;-68
2022/10/24 04:27:39;;;;;;;23.55;11.63;;;;;;;19.17;53.68;102023.69;143715;602;47006;-68
2022/10/24 04:30:10;;;;;;;22.73;10.93;;;;;;;19.13;53.77;102023.31;143716;595;47002;-68
2022/10/24 04:32:37;;;;;;;16.35;9.77;;;;;;;19.14;53.77;102024.16;143715;631;47922;-67
2022/10/24 04:35:04;;;;;;;23.30;10.65;;;;;;;19.14;54.10;102029.59;143715;777;47004;-68
2022/10/24 04:37:31;;;;;;;23.08;9.15;;;;;;;19.13;53.96;102036.94;143718;581;47006;-68
2022/10/24 04:39:57;;;;;;;23.65;10.27;;;;;;;19.12;53.77;102037.16;143717;573;47004;-67
2022/10/24 04:42:24;;;;;;;21.02;10.50;;;;;;;19.09;53.72;102035.69;143718;586;47010;-68
2022/10/24 04:44:50;;;;;;;21.60;10.13;;;;;;;19.10;54.37;102037.37;143716;707;47002;-68
2022/10/24 04:47:18;;;;;;;15.68;8.85;;;;;;;19.08;54.37;102039.47;143719;763;47006;-68
2022/10/24 04:49:44;;;;;;;21.30;9.13;;;;;;;19.09;53.83;102035.69;143717;638;47002;-69
2022/10/24 04:52:10;;;;;;;15.88;8.32;;;;;;;19.11;53.64;102041.75;143717;567;47010;-68
2022/10/24 04:54:37;;;;;;;16.45;9.43;;;;;;;19.10;53.91;102037.37;143717;670;47011;-69
2022/10/24 04:57:03;;;;;;;15.95;8.18;;;;;;;19.13;54.02;102038.84;143719;597;47008;-70
2022/10/24 04:59:29;;;;;;;17.75;9.40;;;;;;;19.12;53.97;102045.34;143718;582;47005;-69
2022/10/24 05:01:56;;;;;;;18.17;9.50;;;;;;;19.13;53.60;102041.56;143717;587;47010;-68
2022/10/24 05:04:22;;;;;;;15.70;9.07;;;;;;;19.14;53.93;102060.37;143715;753;47006;-69
2022/10/24 05:06:48;;;;;;;16.80;9.57;;;;;;;19.14;54.05;102054.94;143719;945;47008;-69
2022/10/24 05:09:15;;;;;;;46.88;11.70;;;;;;;19.17;53.78;102054.50;143719;972;47011;-68
2022/10/24 05:11:41;;;;;;;29.60;11.48;;;;;;;19.22;53.79;102051.94;143719;748;46010;-69
2022/10/24 05:14:07;;;;;;;27.35;10.98;;;;;;;19.29;53.58;102059.19;143716;844;47006;-68
2022/10/24 05:16:33;;;;;;;26.30;10.98;;;;;;;19.28;53.51;102058.38;143719;568;47008;-68
2022/10/24 05:19:00;;;;;;;33.92;11.88;;;;;;;19.28;54.03;102058.38;143717;573;47004;-69
2022/10/24 05:21:26;;;;;;;32.28;11.95;;;;;;;19.27;54.28;102066.75;143716;744;47012;-69
2022/10/24 05:23:52;;;;;;;27.87;12.57;;;;;;;19.27;53.94;102067.59;143718;606;47004;-69
2022/10/24 05:26:19;;;;;;;24.80;11.93;;;;;;;19.29;53.86;102070.09;143718;751;47008;-68
2022/10/24 05:28:45;;;;;;;25.40;10.57;;;;;;;19.32;53.84;102078.66;143719;893;47002;-68
2022/10/24 05:31:11;;;;;;;21.45;9.60;;;;;;;19.32;54.05;102083.28;143716;594;47011;-68
2022/10/24 05:33:38;;;;;;;25.45;9.00;;;;;;;19.36;53.42;102077.13;143716;682;47006;-68
2022/10/24 05:36:05;;;;;;;27.10;9.98;;;;;;;19.38;53.62;102080.47;143719;586;47008;-68
2022/10/24 05:38:32;;;;;;;24.83;9.80;;;;;;;19.40;53.75;102085.72;143717;595;47004;-67
2022/10/24 05:40:58;;;;;;;30.17;10.85;;;;;;;19.43;54.04;102090.69;143719;572;47010;-68
2022/10/24 05:43:24;;;;;;;28.17;11.80;;;;;;;19.47;53.76;102091.91;143714;649;47006;-69
2022/10/24 05:45:51;;;;;;;25.62;11.07;;;;;;;19.50;53.57;102098.84;143715;588;47008;-67
2022/10/24 05:48:17;;;;;;;26.55;11.55;;;;;;;19.50;53.24;102107.00;143719;591;47004;-68
2022/10/24 05:50:44;;;;;;;28.60;11.35;;;;;;;19.55;53.60;102104.41;143717;595;47010;-68
2022/10/24 05:53:11;;;;;;;22.58;10.30;;;;;;;19.57;53.27;102113.19;143715;723;47007;-68
2022/10/24 05:55:38;;;;;;;21.77;10.30;;;;;;;19.62;53.71;102115.25;143718;584;47008;-68
2022/10/24 05:58:04;;;;;;;22.20;12.18;;;;;;;19.64;53.45;102116.72;143717;585;47004;-68
2022/10/24 06:00:32;;;;;;;60.55;28.08;;;;;;;19.69;52.91;102121.47;143713;603;47021;-68
2022/10/24 06:03:00;;;;;;;64.72;30.12;;;;;;;19.73;53.29;102124.56;143716;910;47006;-68
2022/10/24 06:05:26;;;;;;;48.00;21.23;;;;;;;19.77;52.79;102123.88;143719;575;47008;-68
2022/10/24 06:07:52;;;;;;;44.95;19.87;;;;;;;19.81;53.10;102124.28;143720;575;47002;-68
2022/10/24 06:10:19;;;;;;;45.60;19.50;;;;;;;19.87;53.29;102131.59;143720;587;47010;-67
2022/10/24 06:12:46;;;;;;;35.25;16.75;;;;;;;19.93;52.91;102127.97;143722;579;47004;-65
2022/10/24 06:15:13;;;;;;;36.30;19.05;;;;;;;20.00;52.20;102133.34;143716;585;46024;-66
2022/10/24 06:17:40;;;;;;;39.70;19.10;;;;;;;20.06;52.69;102123.41;143719;575;47004;-65
2022/10/24 06:20:07;;;;;;;33.80;16.62;;;;;;;20.17;51.84;102133.56;143717;588;47010;-68
2022/10/24 06:22:34;;;;;;;18.58;10.90;;;;;;;20.26;51.31;102131.34;143718;693;47004;-68
2022/10/24 06:25:00;;;;;;;25.20;13.48;;;;;;;20.33;51.25;102131.28;143719;572;47008;-68
2022/10/24 06:27:27;;;;;;;27.15;11.57;;;;;;;20.39;51.13;102135.78;143719;583;47002;-68
2022/10/24 06:29:53;;;;;;;17.45;9.07;;;;;;;20.49;51.24;102136.09;143716;571;47010;-68
2022/10/24 06:32:19;;;;;;;21.50;9.35;;;;;;;20.56;50.77;102131.34;143716;582;47006;-68
2022/10/24 06:34:46;;;;;;;19.73;9.32;;;;;;;20.63;51.00;102136.75;143718;715;47008;-67
2022/10/24 06:37:12;;;;;;;18.58;9.90;;;;;;;20.69;50.77;102144.00;143717;602;47004;-67
2022/10/24 06:39:38;;;;;;;19.62;9.52;;;;;;;20.77;49.88;102140.12;143716;674;47012;-68
2022/10/24 06:42:05;;;;;;;17.17;9.13;;;;;;;20.85;50.28;102145.28;143716;595;47006;-68
2022/10/24 06:44:31;;;;;;;20.90;10.20;;;;;;;20.93;49.69;102137.78;143717;573;47924;-68
2022/10/24 06:46:58;;;;;;;21.35;9.68;;;;;;;20.98;49.76;102143.41;143715;572;47006;-67
2022/10/24 06:49:24;;;;;;;23.35;11.15;;;;;;;21.02;49.59;102150.88;143716;586;47010;-67
2022/10/24 06:51:51;;;;;;;18.95;10.00;;;;;;;21.10;49.45;102151.63;143718;588;46930;-66
2022/10/24 06:54:17;;;;;;;17.92;9.18;;;;;;;21.17;50.11;102153.19;143715;583;47008;-67
2022/10/24 06:56:43;;;;;;;18.73;9.43;;;;;;;21.23;49.41;102151.41;143717;575;47006;-67
2022/10/24 06:59:16;;;;;;;20.40;10.23;;;;;;;21.31;49.02;102156.53;143718;717;47922;-66
2022/10/24 07:01:42;;;;;;;21.50;9.40;;;;;;;21.40;48.29;102157.03;143718;699;47006;-68
2022/10/24 07:04:09;;;;;;;20.10;9.75;;;;;;;21.46;48.47;102155.25;143719;580;47008;-69
2022/10/24 07:06:36;;;;;;;16.65;10.63;;;;;;;21.54;47.87;102159.50;143718;573;47006;-68
2022/10/24 07:09:03;;;;;;;19.90;10.63;;;;;;;21.61;47.56;102165.75;143718;690;47012;-68
2022/10/24 07:11:30;;;;;;;22.52;10.48;;;;;;;21.69;47.29;102157.16;143717;601;47006;-68
2022/10/24 07:13:56;;;;;;;23.55;10.05;;;;;;;21.76;47.36;102152.41;143718;756;47009;-69
2022/10/24 07:16:24;;;;;;;24.02;11.40;;;;;;;21.87;47.40;102158.09;143719;607;47006;-68
2022/10/24 07:18:51;;;;;;;31.77;10.77;;;;;;;21.94;46.64;102164.28;143717;598;47012;-68
2022/10/24 07:21:23;;;;;;;24.50;10.13;;;;;;;22.04;46.12;102161.75;143716;583;47006;-67
2022/10/24 07:23:50;;;;;;;27.27;11.85;;;;;;;22.14;46.03;102161.16;143720;695;47008;-67
2022/10/24 07:26:18;;;;;;;22.00;9.85;;;;;;;22.25;46.32;102151.25;143718;576;47006;-69
2022/10/24 07:28:46;;;;;;;17.55;9.18;;;;;;;22.34;46.12;102158.00;143717;586;47011;-68
2022/10/24 07:31:16;;;;;;;20.85;8.98;;;;;;;22.44;45.24;102151.09;143715;574;47006;-68
2022/10/24 07:33:42;;;;;;;16.02;8.02;;;;;;;22.54;44.97;102148.56;143718;620;47008;-69
2022/10/24 07:36:08;;;;;;;16.90;8.73;;;;;;;22.63;45.28;102147.09;143715;586;47008;-68
2022/10/24 07:38:36;;;;;;;18.62;8.98;;;;;;;22.73;45.53;102151.09;143717;599;47013;-66
2022/10/24 07:41:04;;;;;;;12.65;8.40;;;;;;;22.83;45.16;102151.28;143716;581;47006;-67
2022/10/24 07:43:30;;;;;;;18.05;9.18;;;;;;;22.93;44.90;102142.44;143716;573;47924;-67
2022/10/24 07:45:56;;;;;;;14.25;8.10;;;;;;;23.02;45.24;102150.00;143718;667;47004;-68
2022/10/24 07:48:23;;;;;;;17.42;8.65;;;;;;;23.09;44.34;102147.09;143716;584;47012;-66
2022/10/24 07:50:49;;;;;;;15.70;8.82;;;;;;;23.16;44.35;102149.66;143716;581;47007;-67
2022/10/24 07:53:16;;;;;;;12.60;8.38;;;;;;;23.27;44.58;102147.94;143718;701;47008;-67
2022/10/24 07:55:43;;;;;;;24.67;9.80;;;;;;;23.37;43.73;102150.84;143717;597;47004;-67
2022/10/24 07:58:11;;;;;;;18.25;9.82;;;;;;;23.46;44.47;102151.25;143719;589;47011;-68
2022/10/24 08:00:38;;;;;;;16.90;9.63;;;;;;;23.58;44.58;102142.94;143713;577;48014;-68
2022/10/24 08:03:04;;;;;;;21.55;11.45;;;;;;;23.67;44.41;102138.66;143716;638;46008;-68
2022/10/24 08:05:30;;;;;;;18.08;10.98;;;;;;;23.81;44.33;102141.06;143723;585;47008;-69
2022/10/24 08:07:57;;;;;;;21.92;11.25;;;;;;;23.93;44.58;102147.25;143718;592;47010;-66
2022/10/24 08:10:23;;;;;;;33.25;13.65;;;;;;;23.99;44.61;102145.44;143715;623;47006;-67
2022/10/24 08:12:50;;;;;;;18.83;12.55;;;;;;;24.01;45.44;102141.34;143715;580;47924;-67
2022/10/24 08:15:16;;;;;;;22.17;11.70;;;;;;;24.13;45.40;102138.47;143717;572;47006;-68
2022/10/24 08:17:42;;;;;;;16.95;11.05;;;;;;;24.21;46.42;102138.03;143718;568;47010;-70
2022/10/24 08:20:10;;;;;;;21.00;10.77;;;;;;;24.30;47.04;102143.06;143715;615;47006;-66
2022/10/24 08:22:36;;;;;;;19.48;9.75;;;;;;;24.33;47.77;102137.06;143718;650;47008;-66
2022/10/24 08:25:05;;;;;;;13.43;10.15;;;;;;;24.43;47.07;102139.94;143715;603;47006;-68
2022/10/24 08:27:31;;;;;;;14.68;9.88;;;;;;;24.55;47.68;102136.19;143717;575;47012;-68
2022/10/24 08:29:58;;;;;;;17.35;11.02;;;;;;;24.66;47.84;102132.44;143715;577;47006;-69
2022/10/24 08:32:24;;;;;;;17.65;10.48;;;;;;;24.79;47.27;102131.25;143719;567;47008;-68
2022/10/24 08:34:50;;;;;;;15.80;9.40;;;;;;;24.91;47.56;102126.38;143718;567;47004;-68
2022/10/24 08:37:17;;;;;;;14.20;9.75;;;;;;;25.07;47.45;102118.28;143715;607;47010;-68
2022/10/24 08:39:43;;;;;;;21.55;9.18;;;;;;;25.14;47.36;102127.12;143716;636;47006;-69
2022/10/24 08:42:14;;;;;;;12.57;9.38;;;;;;;25.26;47.34;102122.25;143717;662;46924;-66
2022/10/24 08:44:43;;;;;;;11.93;8.98;;;;;;;25.36;48.11;102117.94;143717;730;47006;-67
2022/10/24 08:47:48;;;;;;;11.77;8.18;;;;;;;25.51;47.48;102123.56;143717;734;47012;-66
2022/10/24 08:50:25;;;;;;;13.60;8.60;;;;;;;25.65;47.72;102120.34;143716;599;47006;-67
2022/10/24 08:53:25;;;;;;;12.40;9.05;;;;;;;25.80;47.27;102116.84;143717;570;47008;-67
2022/10/24 08:55:54;;;;;;;14.27;7.75;;;;;;;25.65;47.48;102118.44;143717;746;47004;-67
2022/10/24 08:58:36;;;;;;;10.32;8.63;;;;;;;25.86;47.82;102113.00;143716;658;47010;-67
2022/10/24 09:01:07;;;;;;;15.57;9.77;;;;;;;26.10;47.50;102107.06;143715;572;47006;-67
2022/10/24 09:03:45;;;;;;;12.68;8.00;;;;;;;26.34;46.48;102101.91;143718;616;47008;-67
2022/10/24 09:06:17;;;;;;;16.40;8.30;;;;;;;26.66;46.31;102102.78;143717;643;47004;-67
2022/10/24 09:09:23;;;;;;;15.55;9.00;;;;;;;26.90;45.00;102103.94;143717;603;47012;-67
2022/10/24 09:11:53;;;;;;;13.07;8.98;;;;;;;27.44;43.89;102095.31;143714;663;47013;-68
2022/10/24 09:14:41;;;;;;;11.63;8.02;;;;;;;29.56;40.31;102100.28;143712;662;48008;-67
2022/10/24 09:17:32;;;;;;;11.80;8.50;;;;;;;33.64;32.60;102099.69;143713;623;47006;-67
2022/10/24 09:20:20;;;;;;;12.60;8.10;;;;;;;36.05;28.63;102095.78;143715;601;47012;-67
2022/10/24 09:22:47;;;;;;;11.55;7.53;;;;;;;37.57;26.33;102095.47;143712;574;47006;-67
2022/10/24 09:25:21;;;;;;;14.10;7.62;;;;;;;38.75;24.35;102091.72;143716;577;47008;-68
2022/10/24 09:27:49;;;;;;;13.05;8.15;;;;;;;39.72;23.26;102084.03;143716;613;47006;-68
2022/10/24 09:30:21;;;;;;;9.90;7.68;;;;;;;40.53;21.82;102082.50;143715;570;47013;-67
2022/10/24 09:32:48;;;;;;;13.43;7.15;;;;;;;41.35;21.08;102078.66;143714;588;47006;-68
2022/10/24 09:35:34;;;;;;;11.73;7.20;;;;;;;42.13;20.28;102074.50;143719;570;47008;-67
2022/10/24 09:38:39;;;;;;;13.38;8.18;;;;;;;42.66;19.08;102073.47;143715;601;47004;-68
2022/10/24 09:41:26;;;;;;;10.65;7.68;;;;;;;42.95;19.45;102079.38;143714;609;47010;-68
2022/10/24 09:43:55;;;;;;;13.68;7.12;;;;;;;42.63;19.88;102077.06;143714;591;47007;-68
2022/10/24 09:46:28;;;;;;;11.90;7.78;;;;;;;39.75;22.24;102063.66;143711;610;49002;-68
2022/10/24 09:49:18;;;;;;;9.32;6.87;;;;;;;37.69;24.95;102069.41;143716;582;47004;-68
2022/10/24 09:52:15;;;;;;;13.77;8.07;;;;;;;36.47;26.45;102064.16;143715;721;47013;-67
2022/10/24 09:54:43;;;;;;;14.00;7.70;;;;;;;36.25;27.04;102058.59;143714;593;47013;-68
2022/10/24 09:57:20;;;;;;;10.88;7.60;;;;;;;39.03;23.39;102053.50;143714;598;47008;-67
2022/10/24 09:59:59;;;;;;;21.12;8.25;;;;;;;41.39;20.76;102047.72;143714;586;47004;-67
2022/10/24 10:02:33;;;;;;;16.10;8.13;;;;;;;42.32;19.54;102055.75;143716;660;47019;-67
2022/10/24 10:05:18;;;;;;;11.75;7.10;;;;;;;41.54;19.87;102049.59;143714;592;47011;-67
2022/10/24 10:07:47;;;;;;;10.10;7.03;;;;;;;39.50;22.54;102044.19;143716;576;47008;-68
2022/10/24 10:10:39;;;;;;;11.75;7.57;;;;;;;37.30;24.94;102039.78;143716;585;47004;-67
2022/10/24 10:13:37;;;;;;;12.37;7.25;;;;;;;36.06;26.79;102033.09;143713;682;47922;-68
2022/10/24 10:16:06;;;;;;;16.00;7.68;;;;;;;35.30;27.97;102030.94;143712;572;47006;-67
2022/10/24 10:18:42;;;;;;;11.95;7.22;;;;;;;34.51;29.40;102030.41;143715;665;47008;-67
2022/10/24 10:22:11;;;;;;;12.77;8.05;;;;;;;33.88;30.51;102031.56;143710;647;47004;-67
2022/10/24 10:24:41;;;;;;;10.68;7.93;;;;;;;33.21;31.66;102023.22;143713;641;47010;-67
2022/10/24 10:27:37;;;;;;;9.60;7.05;;;;;;;32.82;32.41;102015.69;143714;644;47006;-67
2022/10/24 10:30:18;;;;;;;17.12;8.70;;;;;;;32.33;33.04;102019.13;143717;568;47008;-68
2022/10/24 10:33:29;;;;;;;10.38;7.12;;;;;;;31.83;33.84;102014.44;143715;598;47006;-67
2022/10/24 10:36:24;;;;;;;11.60;7.22;;;;;;;31.63;34.58;102012.91;143715;750;47013;-67
2022/10/24 10:39:38;;;;;;;12.45;7.18;;;;;;;31.36;34.59;102006.28;143712;719;47006;-67
2022/10/24 10:42:16;;;;;;;;;;;;;;;31.26;34.50;102002.56;143722;982;47009;-67
2022/10/24 10:45:39;;;;;;;14.70;7.57;;;;;;;31.05;35.41;101993.00;143728;661;47002;-67
2022/10/24 10:48:53;;;;;;;11.80;7.72;;;;;;;30.97;35.89;101992.56;143716;597;47012;-67
2022/10/24 10:51:46;;;;;;;14.50;8.32;;;;;;;30.88;35.79;101982.50;143716;621;47004;-67
2022/10/24 10:55:06;;;;;;;11.90;7.93;;;;;;;30.69;36.17;101980.62;143718;612;47008;-67
2022/10/24 10:58:10;;;;;;;10.35;6.50;;;;;;;30.56;36.23;101973.91;143714;569;47006;-67
2022/10/24 11:01:19;;;;;;;11.40;7.12;;;;;;;30.46;36.47;101976.84;143714;591;47010;-67
2022/10/24 11:04:17;;;;;;;9.73;6.65;;;;;;;30.39;36.89;101972.50;143714;573;47004;-68
2022/10/24 11:07:08;;;;;;;12.05;7.50;;;;;;;30.16;37.06;101959.63;143714;594;47008;-68
2022/10/24 11:09:50;;;;;;;12.77;7.47;;;;;;;30.00;37.37;101957.12;143716;568;47006;-68
2022/10/24 11:12:24;;;;;;;10.82;7.22;;;;;;;29.93;37.00;101959.41;143715;577;47012;-67
2022/10/24 11:14:56;;;;;;;14.68;7.12;;;;;;;29.75;36.94;101959.09;143714;592;47006;-68
2022/10/24 11:17:43;;;;;;;16.02;6.53;;;;;;;29.70;36.83;101953.62;143716;668;47008;-67
2022/10/24 11:20:34;;;;;;;14.27;6.80;;;;;;;29.42;37.00;101947.09;143717;652;47002;-67
2022/10/24 11:23:23;;;;;;;11.38;7.10;;;;;;;29.42;36.70;101947.09;143715;569;47010;-67
2022/10/24 11:25:58;;;;;;;11.23;7.12;;;;;;;29.44;37.20;101942.09;143714;608;47006;-67
2022/10/24 11:29:07;;;;;;;15.10;7.35;;;;;;;29.40;37.23;101936.34;143716;606;47008;-67
2022/10/24 11:31:40;;;;;;;12.93;7.47;;;;;;;29.39;37.58;101929.16;143707;652;47006;-67
2022/10/24 11:34:16;;;;;;;13.07;7.03;;;;;;;29.26;37.69;101922.38;143715;608;47012;-66
2022/10/24 11:36:53;;;;;;;11.63;7.40;;;;;;;29.27;38.36;101924.03;143714;606;47006;-68
2022/10/24 11:39:43;;;;;;;11.98;7.05;;;;;;;29.27;38.11;101926.00;143717;568;47008;-67
2022/10/24 11:42:26;;;;;;;12.52;7.55;;;;;;;29.14;38.14;101917.28;143718;577;47010;-67
2022/10/24 11:45:30;;;;;;;16.17;7.75;;;;;;;28.94;39.37;101915.59;143716;601;47010;-67